Time;durP1;ratioP1;P1;durP2;ratioP2;P2;SDS_P1;SDS_P2;PMS_P1;PMS_P2;Temp;Humidity;BMP_temperature;BMP_pressure;BME280_temperature;BME280_humidity;BME280_pressure;Samples;Min_cycle;Max_cycle;Signal;HPM_P1;HPM_P2
2023/07/18 00:01:59;;;;;;;;;;;;;;;10.82;100.00;101978.81;10445157;28;20115;-75
2023/07/18 00:07:00;;;;;;;27.30;13.13;;;;;;;10.74;100.00;101980.91;10440941;28;19931;-75
2023/07/18 00:12:00;;;;;;;23.67;12.48;;;;;;;10.66;100.00;101972.59;10442421;28;20514;-75
2023/07/18 00:17:01;;;;;;;24.02;12.30;;;;;;;10.60;100.00;101971.25;10434779;28;20554;-75
2023/07/18 00:22:01;;;;;;;28.67;13.88;;;;;;;10.56;100.00;101973.69;10441939;28;20067;-75
2023/07/18 00:27:03;;;;;;;26.42;14.45;;;;;;;10.52;100.00;101973.41;10432998;28;20043;-77
2023/07/18 00:32:04;;;;;;;;;;;;;;;10.42;100.00;101980.63;10431594;28;20045;-76
2023/07/18 00:37:05;;;;;;;28.77;15.05;;;;;;;10.32;100.00;101975.56;10430004;28;19916;-75
2023/07/18 00:42:06;;;;;;;33.10;15.05;;;;;;;10.25;100.00;101969.00;10442262;28;20045;-78
2023/07/18 00:47:07;;;;;;;28.80;15.25;;;;;;;10.29;100.00;101960.56;10442307;28;20044;-75
2023/07/18 00:52:08;;;;;;;33.13;17.35;;;;;;;10.31;100.00;101958.06;10442824;28;20116;-75
2023/07/18 00:57:09;;;;;;;34.53;15.38;;;;;;;10.36;100.00;101950.50;10432430;28;20053;-76
2023/07/18 01:02:09;;;;;;;33.28;16.95;;;;;;;10.31;100.00;101952.81;10445384;28;20039;-75
2023/07/18 01:07:10;;;;;;;26.83;14.68;;;;;;;10.24;100.00;101950.59;10448810;28;20041;-75
2023/07/18 01:12:10;;;;;;;32.40;18.65;;;;;;;10.15;100.00;101940.41;10449771;28;20438;-76
2023/07/18 01:17:12;;;;;;;36.42;18.40;;;;;;;10.14;100.00;101946.44;10449288;28;20041;-76
2023/07/18 01:22:12;;;;;;;39.70;19.30;;;;;;;10.04;100.00;101950.19;10448881;28;20041;-75
2023/07/18 01:27:13;;;;;;;34.03;17.77;;;;;;;9.96;100.00;101953.97;10446060;28;20268;-75
2023/07/18 01:32:13;;;;;;;40.22;17.90;;;;;;;9.91;100.00;101950.16;10430142;28;20036;-74
2023/07/18 01:37:15;;;;;;;33.97;18.33;;;;;;;9.90;100.00;101933.53;10430447;28;20574;-74
2023/07/18 01:42:16;;;;;;;40.40;17.15;;;;;;;9.84;100.00;101933.13;10430775;28;20037;-74
2023/07/18 01:47:17;;;;;;;29.70;17.17;;;;;;;9.79;100.00;101927.59;10435849;28;20038;-74
2023/07/18 01:52:17;;;;;;;30.13;17.35;;;;;;;9.79;100.00;101931.91;10446722;28;20072;-75
2023/07/18 01:57:18;;;;;;;35.35;17.92;;;;;;;9.74;100.00;101917.63;10446421;28;20120;-74
2023/07/18 02:02:18;;;;;;;34.15;18.25;;;;;;;9.73;100.00;101921.03;10447922;28;20037;-75
2023/07/18 02:07:19;;;;;;;34.55;19.23;;;;;;;9.72;100.00;101914.91;10447253;28;20121;-75
2023/07/18 02:12:19;;;;;;;38.15;18.35;;;;;;;9.64;100.00;101917.00;10446473;28;20465;-75
2023/07/18 02:17:20;;;;;;;40.58;19.27;;;;;;;9.62;100.00;101918.59;10441611;28;20125;-75
2023/07/18 02:22:21;;;;;;;31.02;16.42;;;;;;;9.56;100.00;101915.56;10424724;28;20036;-74
2023/07/18 02:27:22;;;;;;;34.17;17.55;;;;;;;9.54;100.00;101910.25;10447381;28;20476;-74
2023/07/18 02:32:22;;;;;;;34.15;16.85;;;;;;;9.52;100.00;101908.31;10446712;28;20039;-75
2023/07/18 02:37:24;;;;;;;29.33;15.40;;;;;;;9.42;100.00;101908.47;10444622;28;20029;-74
2023/07/18 02:42:24;;;;;;;31.80;14.52;;;;;;;9.38;100.00;101913.50;10439661;28;20048;-75
2023/07/18 02:47:25;;;;;;;28.45;15.52;;;;;;;9.35;100.00;101910.66;10441459;28;20045;-74
2023/07/18 02:52:25;;;;;;;24.65;14.60;;;;;;;9.29;100.00;101897.19;10420201;28;20061;-74
2023/07/18 02:57:26;;;;;;;23.90;14.55;;;;;;;9.27;100.00;101890.94;10442520;28;20513;-74
2023/07/18 03:02:28;;;;;;;27.58;13.80;;;;;;;9.26;100.00;101899.56;10441653;28;20119;-75
2023/07/18 03:07:29;;;;;;;;;;;;;;;9.25;100.00;101903.91;10443825;28;20037;-74
2023/07/18 03:12:29;;;;;;;29.60;15.65;;;;;;;9.13;100.00;101894.31;10426246;28;20296;-74
2023/07/18 03:17:30;;;;;;;27.10;16.08;;;;;;;9.08;100.00;101900.09;10423036;28;20119;-75
2023/07/18 03:22:30;;;;;;;33.42;18.15;;;;;;;9.06;100.00;101898.19;10428002;28;20056;-74
2023/07/18 03:27:31;;;;;;;33.50;18.30;;;;;;;9.06;100.00;101901.69;10463014;28;20116;-74
2023/07/18 03:32:31;;;;;;;43.30;18.50;;;;;;;8.99;100.00;101904.69;10444661;28;20124;-74
2023/07/18 03:37:32;;;;;;;41.15;21.45;;;;;;;8.93;100.00;101893.81;10443782;28;20148;-74
2023/07/18 03:42:33;;;;;;;37.97;19.80;;;;;;;8.95;100.00;101900.97;10443945;28;20442;-74
2023/07/18 03:47:34;;;;;;;35.50;19.13;;;;;;;8.98;100.00;101888.91;10442997;28;20044;-74
2023/07/18 03:52:34;;;;;;;37.38;19.83;;;;;;;8.98;100.00;101879.38;10426047;28;20044;-74
2023/07/18 03:57:35;;;;;;;29.23;16.02;;;;;;;9.01;100.00;101889.13;10439724;28;20502;-75
2023/07/18 04:02:35;;;;;;;41.25;18.80;;;;;;;8.95;100.00;101900.03;10442468;28;20125;-76
2023/07/18 04:07:36;;;;;;;34.40;19.13;;;;;;;8.94;100.00;101891.31;10444757;28;20075;-75
2023/07/18 04:12:37;;;;;;;36.55;20.60;;;;;;;8.94;100.00;101891.31;10430494;28;20048;-74
2023/07/18 04:17:38;;;;;;;42.70;21.30;;;;;;;8.88;100.00;101883.06;10418978;28;20047;-74
2023/07/18 04:22:39;;;;;;;35.67;19.97;;;;;;;8.94;100.00;101882.56;10441386;28;20033;-74
2023/07/18 04:27:40;;;;;;;30.85;17.02;;;;;;;8.99;100.00;101878.56;10441883;28;20359;-73
2023/07/18 04:32:41;;;;;;;31.38;18.48;;;;;;;9.03;100.00;101874.47;10449995;28;20057;-74
2023/07/18 04:37:43;;;;;;;36.05;17.50;;;;;;;9.16;100.00;101868.41;10441616;28;20404;-74
2023/07/18 04:42:43;;;;;;;33.88;17.80;;;;;;;9.48;100.00;101873.25;10423877;28;20042;-74
2023/07/18 04:47:44;;;;;;;31.10;18.20;;;;;;;9.69;100.00;101873.78;10416659;28;20440;-76
2023/07/18 04:52:44;;;;;;;29.77;15.68;;;;;;;9.58;100.00;101873.88;10440268;28;20045;-75
2023/07/18 04:57:45;;;;;;;35.92;14.75;;;;;;;9.58;100.00;101877.38;10425990;28;20033;-77
2023/07/18 05:02:45;;;;;;;27.10;15.60;;;;;;;9.57;100.00;101867.72;10434741;28;20045;-74
2023/07/18 05:07:47;;;;;;;34.13;16.88;;;;;;;9.60;100.00;101859.19;10434958;28;20033;-76
2023/07/18 05:12:47;;;;;;;29.35;15.00;;;;;;;9.71;100.00;101855.59;10430507;28;20477;-78
2023/07/18 05:17:48;;;;;;;30.17;15.45;;;;;;;9.93;100.00;101859.63;10436244;28;20049;-75
2023/07/18 05:22:49;;;;;;;24.30;12.57;;;;;;;10.50;100.00;101851.97;10440899;28;20162;-75
2023/07/18 05:27:49;;;;;;;33.60;15.13;;;;;;;11.20;100.00;101854.56;10440468;28;20048;-75
2023/07/18 05:32:51;;;;;;;19.48;11.07;;;;;;;11.84;100.00;101848.72;10442208;28;20067;-75
2023/07/18 05:37:51;;;;;;;21.95;9.85;;;;;;;12.57;100.00;101847.56;10440527;28;20041;-76
2023/07/18 05:42:52;;;;;;;16.90;7.68;;;;;;;13.22;100.00;101852.78;10440929;28;20049;-77
2023/07/18 05:47:52;;;;;;;18.65;6.40;;;;;;;14.05;100.00;101860.50;10440912;28;20120;-76
2023/07/18 05:52:53;;;;;;;11.68;5.22;;;;;;;15.02;100.00;101848.38;10448434;28;20547;-77
2023/07/18 05:57:54;;;;;;;6.47;3.65;;;;;;;15.74;100.00;101854.09;10447679;28;20053;-77
2023/07/18 06:02:55;;;;;;;7.13;4.35;;;;;;;16.40;100.00;101848.88;10430785;28;20190;-77
2023/07/18 06:07:55;;;;;;;7.77;4.27;;;;;;;16.96;100.00;101832.47;10421925;28;20065;-76
2023/07/18 06:12:56;;;;;;;8.00;3.03;;;;;;;17.69;100.00;101808.59;10464573;28;20049;-78
2023/07/18 06:17:56;;;;;;;8.03;4.03;;;;;;;18.33;100.00;101749.66;10446812;28;20049;-78
2023/07/18 06:22:57;;;;;;;5.90;2.70;;;;;;;19.29;100.00;101744.38;10447184;28;20757;-78
2023/07/18 06:27:57;;;;;;;7.60;3.90;;;;;;;20.29;100.00;101765.34;10442638;28;20049;-78
2023/07/18 06:32:59;;;;;;;11.77;2.70;;;;;;;20.57;100.00;101774.81;10417960;28;20047;-80
2023/07/18 06:38:00;;;;;;;11.68;3.72;;;;;;;21.20;100.00;101798.19;10430118;28;20055;-78
2023/07/18 06:43:00;;;;;;;10.52;3.03;;;;;;;21.48;100.00;101791.63;10447049;28;20041;-78
2023/07/18 06:48:02;;;;;;;10.70;2.43;;;;;;;21.71;100.00;101817.78;10458282;28;20119;-77
2023/07/18 06:53:02;;;;;;;;;;;;;;;21.97;100.00;101819.97;10470091;28;20570;-77
2023/07/18 06:58:03;;;;;;;7.47;1.90;;;;;;;22.24;100.00;101824.78;10485131;28;19973;-78
2023/07/18 07:03:04;;;;;;;6.80;2.45;;;;;;;22.66;100.00;101829.84;10488427;28;20145;-77
2023/07/18 07:08:08;;;;;;;6.17;1.87;;;;;;;22.65;100.00;101838.72;10462764;28;20496;-77
2023/07/18 07:13:09;;;;;;;7.07;2.10;;;;;;;23.36;100.00;101833.34;10485144;28;20081;-78
2023/07/18 07:18:10;;;;;;;3.33;1.57;;;;;;;24.22;97.88;101845.63;10464831;28;20412;-77
2023/07/18 07:23:10;;;;;;;6.75;2.58;;;;;;;24.22;100.00;101843.84;10455684;28;20035;-77
2023/07/18 07:28:11;;;;;;;4.27;1.97;;;;;;;25.44;86.52;101846.09;10485910;28;20072;-77
2023/07/18 07:33:12;;;;;;;4.73;2.13;;;;;;;24.78;79.07;101838.81;10485411;28;20033;-77
2023/07/18 07:38:12;;;;;;;5.22;1.38;;;;;;;24.76;86.64;101836.13;10484843;28;20047;-76
2023/07/18 07:43:13;;;;;;;6.67;2.17;;;;;;;23.90;91.54;101844.47;10484867;28;20060;-76
2023/07/18 07:48:13;;;;;;;9.20;2.10;;;;;;;25.05;81.58;101838.00;10484895;28;20098;-76
2023/07/18 07:53:14;;;;;;;6.43;2.33;;;;;;;25.44;75.34;101839.88;10459536;28;20049;-76
2023/07/18 07:58:15;;;;;;;6.03;1.67;;;;;;;25.72;76.21;101839.91;10484501;28;20048;-76
2023/07/18 08:03:16;;;;;;;2.20;1.30;;;;;;;26.43;81.05;101837.16;10484900;28;20036;-76
2023/07/18 08:08:17;;;;;;;8.50;2.83;;;;;;;25.93;68.50;101847.03;10482768;28;20051;-77
2023/07/18 08:13:18;;;;;;;;;;;;;;;26.35;72.34;101831.78;10482838;28;20396;-76
2023/07/18 08:18:18;;;;;;;10.50;2.80;;;;;;;27.19;66.59;101823.38;10484582;28;19920;-77
2023/07/18 08:23:19;;;;;;;2.17;1.17;;;;;;;26.54;71.13;101821.00;10481813;28;20055;-77
2023/07/18 08:28:20;;;;;;;4.83;2.03;;;;;;;26.69;67.79;101817.38;10485247;28;20044;-77
2023/07/18 08:33:21;;;;;;;4.75;1.27;;;;;;;26.95;64.28;101811.88;10464082;28;20067;-77
2023/07/18 08:38:22;;;;;;;8.98;1.92;;;;;;;26.34;67.49;101807.66;10483914;28;20166;-78
2023/07/18 08:43:22;;;;;;;3.20;1.60;;;;;;;26.02;71.34;101811.28;10483570;28;20041;-77
2023/07/18 08:48:23;;;;;;;5.40;1.60;;;;;;;25.94;68.44;101803.25;10484687;28;20121;-78
2023/07/18 08:53:24;;;;;;;4.93;1.63;;;;;;;24.82;70.98;101800.44;10483107;28;20033;-78
2023/07/18 08:58:26;;;;;;;4.80;2.10;;;;;;;23.45;74.60;101788.00;10482936;28;20047;-76
2023/07/18 09:03:26;;;;;;;3.35;1.60;;;;;;;22.57;86.92;101780.81;10464965;28;20045;-77
2023/07/18 09:08:27;;;;;;;3.77;1.73;;;;;;;21.24;96.55;101782.34;10468695;28;20127;-77
2023/07/18 09:13:27;;;;;;;7.30;1.90;;;;;;;22.27;100.00;101779.50;10478754;28;20068;-76
2023/07/18 09:18:28;;;;;;;3.50;1.93;;;;;;;25.15;82.88;101782.66;10446044;28;20061;-77
2023/07/18 09:23:28;;;;;;;5.03;1.60;;;;;;;24.41;78.38;101785.09;10453700;28;20050;-77
2023/07/18 09:28:31;;;;;;;3.03;1.40;;;;;;;24.01;82.23;101775.09;10486673;28;20122;-76
2023/07/18 09:33:32;;;;;;;2.65;1.40;;;;;;;23.03;77.47;101775.13;10488530;28;20040;-77
2023/07/18 09:38:32;;;;;;;3.97;2.00;;;;;;;22.76;86.13;101764.16;10486762;28;20067;-77
2023/07/18 09:43:33;;;;;;;3.03;1.23;;;;;;;23.37;80.10;101755.00;10471850;28;20123;-78
2023/07/18 09:48:34;;;;;;;4.07;1.40;;;;;;;23.18;92.18;101757.47;10453389;28;20044;-77
2023/07/18 09:53:36;;;;;;;3.20;1.30;;;;;;;22.29;89.81;101745.78;10488721;28;20489;-78
2023/07/18 09:58:39;;;;;;;;;;;;;;;21.54;100.00;101750.88;10458405;28;20508;-77
2023/07/18 10:03:40;;;;;;;5.13;2.70;;;;;;;20.43;100.00;101729.31;10487788;28;19921;-78
2023/07/18 10:08:41;;;;;;;6.25;2.03;;;;;;;20.07;100.00;101725.91;10485383;28;20049;-77
2023/07/18 10:14:05;;;;;;;7.88;2.80;;;;;;;20.21;100.00;101701.41;10450450;28;20075;-77
2023/07/18 10:19:16;;;;;;;4.82;1.67;;;;;;;20.78;100.00;101702.53;10448710;28;20047;-77
2023/07/18 10:24:20;;;;;;;5.40;2.25;;;;;;;20.91;100.00;101709.00;10488941;28;20063;-77
2023/07/18 10:29:21;;;;;;;6.65;1.92;;;;;;;21.93;100.00;101704.41;10488328;28;20454;-78
2023/07/18 10:34:21;;;;;;;6.77;1.87;;;;;;;22.97;99.06;101708.34;10471228;28;20032;-78
2023/07/18 10:39:51;;;;;;;7.13;1.10;;;;;;;25.21;78.96;101702.31;10488581;28;20127;-78
2023/07/18 10:44:59;;;;;;;2.78;1.58;;;;;;;25.16;81.46;101701.44;10475941;28;20041;-77
2023/07/18 10:49:59;;;;;;;7.07;2.63;;;;;;;24.60;76.43;101698.66;10453995;28;20162;-79
2023/07/18 10:55:00;;;;;;;9.07;3.67;;;;;;;25.83;71.17;101690.66;10459315;28;20053;-78
2023/07/18 11:00:04;;;;;;;5.80;2.20;;;;;;;25.97;68.70;101687.91;10486173;28;20040;-78
2023/07/18 11:05:12;;;;;;;4.22;1.20;;;;;;;25.28;74.57;101688.94;10480523;28;20045;-78
2023/07/18 11:10:13;;;;;;;3.75;1.80;;;;;;;24.23;75.24;101684.28;10458642;28;20109;-77
2023/07/18 11:15:14;;;;;;;2.83;1.00;;;;;;;23.39;82.42;101682.00;10458796;28;20549;-77
2023/07/18 11:20:14;;;;;;;4.10;1.75;;;;;;;23.43;83.28;101680.25;10486005;28;20047;-77
2023/07/18 11:25:15;;;;;;;2.77;1.77;;;;;;;24.40;74.17;101677.22;10479686;28;20036;-77
2023/07/18 11:30:16;;;;;;;8.70;1.23;;;;;;;26.64;72.10;101674.22;10450350;28;20041;-76
2023/07/18 11:35:23;;;;;;;9.30;1.83;;;;;;;28.26;56.81;101666.41;10423488;28;20326;-77
2023/07/18 11:40:25;;;;;;;3.00;1.40;;;;;;;28.79;59.91;101659.38;10439799;28;20405;-77
2023/07/18 11:45:27;;;;;;;4.57;1.23;;;;;;;27.80;50.99;101651.69;10440941;28;20393;-77
2023/07/18 11:50:29;;;;;;;4.85;1.27;;;;;;;28.13;51.84;101644.13;10442520;28;20385;-77
2023/07/18 11:55:31;;;;;;;3.20;1.85;;;;;;;28.75;51.76;101650.44;10438574;28;20484;-79
2023/07/18 12:00:31;;;;;;;2.75;1.60;;;;;;;29.20;52.45;101652.38;10431988;28;20030;-79
2023/07/18 12:05:32;;;;;;;4.80;1.30;;;;;;;28.97;51.64;101661.75;10425709;28;20573;-78
2023/07/18 12:10:33;;;;;;;2.93;1.40;;;;;;;29.38;50.10;101651.19;10429486;28;20029;-78
2023/07/18 12:15:33;;;;;;;3.75;1.63;;;;;;;28.83;51.20;101623.38;10428112;28;20385;-80
2023/07/18 12:20:34;;;;;;;7.20;1.80;;;;;;;28.51;51.06;101639.13;10423577;28;20048;-83
2023/07/18 12:25:34;;;;;;;4.80;1.33;;;;;;;29.03;54.37;101636.53;10424541;28;20543;-78
2023/07/18 12:30:35;;;;;;;5.47;1.20;;;;;;;28.99;51.83;101630.28;10429808;28;20401;-77
2023/07/18 12:35:36;;;;;;;7.57;2.97;;;;;;;29.74;50.71;101612.72;10430889;28;20119;-77
2023/07/18 12:40:37;;;;;;;3.00;1.50;;;;;;;29.02;49.60;101607.81;10455738;28;20513;-76
2023/07/18 12:45:38;;;;;;;3.75;1.70;;;;;;;28.82;52.80;101603.66;10470695;28;20124;-77
2023/07/18 12:50:38;;;;;;;8.50;2.13;;;;;;;28.81;52.63;101598.28;10439072;28;20405;-76
2023/07/18 12:55:39;;;;;;;3.63;1.07;;;;;;;28.58;48.67;101597.72;10444979;28;20121;-76
2023/07/18 13:00:39;;;;;;;7.77;1.83;;;;;;;27.34;57.12;101583.22;10448213;28;20393;-76
2023/07/18 13:05:41;;;;;;;3.83;2.13;;;;;;;26.32;61.17;101563.50;10430540;28;20041;-77
2023/07/18 13:10:42;;;;;;;4.00;1.85;;;;;;;26.65;61.05;101563.25;10430500;28;20519;-78
2023/07/18 13:15:44;;;;;;;7.57;2.03;;;;;;;27.97;54.27;101556.44;10430709;28;20044;-78
2023/07/18 13:20:45;;;;;;;6.78;2.20;;;;;;;28.76;52.81;101541.78;10447295;28;20044;-77
2023/07/18 13:25:45;;;;;;;5.20;1.87;;;;;;;29.11;49.59;101521.41;10447954;28;20436;-78
2023/07/18 13:30:46;;;;;;;4.77;1.93;;;;;;;29.63;46.80;101507.78;10448256;28;20044;-78
2023/07/18 13:35:46;;;;;;;2.50;1.57;;;;;;;30.05;51.25;101497.88;10441743;28;20037;-77
2023/07/18 13:40:47;;;;;;;7.40;2.53;;;;;;;29.59;51.03;101488.09;10435872;28;20052;-78
2023/07/18 13:45:47;;;;;;;3.90;1.63;;;;;;;28.88;49.77;101488.66;10442502;28;20440;-78
2023/07/18 13:50:48;;;;;;;3.73;1.40;;;;;;;29.04;48.90;101473.94;10419376;28;20074;-78
2023/07/18 13:55:48;;;;;;;3.53;1.73;;;;;;;29.16;48.89;101479.09;10425659;28;20171;-77
2023/07/18 14:00:49;;;;;;;4.10;1.40;;;;;;;29.77;52.98;101477.78;10417048;28;20040;-78
2023/07/18 14:05:49;;;;;;;4.17;1.63;;;;;;;29.79;50.95;101473.25;10447121;28;20048;-78
2023/07/18 14:10:50;;;;;;;4.03;1.60;;;;;;;30.12;46.85;101461.72;10445344;28;20119;-77
2023/07/18 14:15:50;;;;;;;3.67;1.93;;;;;;;29.60;44.75;101460.19;10447629;28;20122;-78
2023/07/18 14:20:51;;;;;;;5.53;2.10;;;;;;;29.58;49.84;101461.16;10446300;28;20450;-77
2023/07/18 14:25:52;;;;;;;8.20;1.77;;;;;;;29.85;50.62;101458.75;10442828;28;20095;-77
2023/07/18 14:30:52;;;;;;;3.87;1.80;;;;;;;29.47;48.39;101464.09;10426376;28;20045;-77
2023/07/18 14:35:53;;;;;;;4.90;2.27;;;;;;;28.71;50.25;101461.06;10443096;28;20501;-77
2023/07/18 14:40:54;;;;;;;8.27;2.90;;;;;;;27.98;50.20;101451.53;10446720;28;20052;-78
2023/07/18 14:45:54;;;;;;;9.55;2.70;;;;;;;27.06;52.77;101451.88;10444801;28;20041;-78
2023/07/18 14:50:55;;;;;;;3.67;1.90;;;;;;;26.78;51.55;101437.84;10444079;28;20033;-77
2023/07/18 14:55:55;;;;;;;1.97;1.43;;;;;;;26.71;54.18;101437.03;10411349;28;20044;-77
2023/07/18 15:00:56;;;;;;;4.10;2.37;;;;;;;27.07;50.34;101437.56;10445563;28;20081;-77
2023/07/18 15:05:58;;;;;;;6.50;2.50;;;;;;;26.95;58.80;101435.88;10444224;28;20048;-77
2023/07/18 15:10:58;;;;;;;5.80;1.80;;;;;;;26.73;53.04;101419.13;10443730;28;20053;-77
2023/07/18 15:15:59;;;;;;;6.33;2.40;;;;;;;25.76;56.81;101402.94;10444029;28;20446;-78
2023/07/18 15:21:00;;;;;;;4.23;2.50;;;;;;;25.09;59.60;101412.25;10444477;28;20484;-77
2023/07/18 15:26:01;;;;;;;4.53;1.97;;;;;;;24.68;58.81;101406.09;10443792;28;20057;-77
2023/07/18 15:31:03;;;;;;;6.17;2.27;;;;;;;24.09;60.81;101392.78;10445708;28;20506;-77
2023/07/18 15:36:03;;;;;;;4.82;2.20;;;;;;;23.97;62.48;101386.50;10442422;28;20489;-77
2023/07/18 15:41:04;;;;;;;3.83;1.97;;;;;;;23.95;63.71;101390.97;10444155;28;20048;-77
2023/07/18 15:46:04;;;;;;;6.07;2.57;;;;;;;23.93;66.23;101375.84;10443709;28;20041;-77
2023/07/18 15:51:05;;;;;;;3.87;1.97;;;;;;;24.01;64.97;101368.75;10426499;28;20069;-77
2023/07/18 15:56:05;;;;;;;4.17;1.33;;;;;;;23.97;64.17;101380.28;10402247;28;20041;-77
2023/07/18 16:01:06;;;;;;;5.93;1.83;;;;;;;23.80;63.79;101367.81;10409243;28;20044;-76
2023/07/18 16:06:07;;;;;;;8.07;2.43;;;;;;;23.61;62.90;101369.56;10420661;28;20041;-77
2023/07/18 16:11:07;;;;;;;3.50;1.53;;;;;;;23.49;66.11;101358.84;10432593;28;20191;-77
2023/07/18 16:16:09;;;;;;;6.60;2.37;;;;;;;23.21;74.32;101350.75;10416778;28;20048;-77
2023/07/18 16:21:09;;;;;;;;;;;;;;;22.90;72.62;101348.88;10419219;28;20045;-77
2023/07/18 16:26:10;;;;;;;5.22;1.73;;;;;;;22.70;70.66;101338.09;10433903;28;19924;-77
2023/07/18 16:31:11;;;;;;;5.37;2.10;;;;;;;22.55;72.32;101337.13;10441192;28;20036;-78
2023/07/18 16:36:11;;;;;;;6.90;2.23;;;;;;;22.62;70.30;101332.75;10416027;28;20511;-77
2023/07/18 16:41:12;;;;;;;4.37;2.13;;;;;;;22.57;70.71;101330.03;10429548;28;20524;-77
2023/07/18 16:46:14;;;;;;;7.00;1.50;;;;;;;22.71;65.39;101316.78;10436462;28;20489;-77
2023/07/18 16:51:15;;;;;;;13.45;2.10;;;;;;;22.73;70.08;101315.00;10433908;28;20044;-77
2023/07/18 16:56:16;;;;;;;4.53;2.35;;;;;;;22.68;71.15;101305.19;10419317;28;20045;-78
2023/07/18 17:01:18;;;;;;;5.30;2.07;;;;;;;22.75;77.73;101301.66;10438152;28;20057;-77
2023/07/18 17:06:19;;;;;;;2.83;2.10;;;;;;;22.78;68.51;101292.81;10434691;28;20552;-78
2023/07/18 17:11:20;;;;;;;4.70;2.07;;;;;;;22.79;66.94;101287.44;10405665;28;20040;-78
2023/07/18 17:16:20;;;;;;;6.50;2.60;;;;;;;22.86;68.65;101281.25;10438395;28;20454;-78
2023/07/18 17:21:21;;;;;;;2.73;1.40;;;;;;;22.75;75.94;101280.31;10430638;28;20124;-78
2023/07/18 17:26:22;;;;;;;3.83;2.03;;;;;;;22.60;72.22;101278.50;10437098;28;20064;-78
2023/07/18 17:31:22;;;;;;;5.20;1.90;;;;;;;22.02;76.94;101281.69;10439189;28;20037;-78
2023/07/18 17:36:23;;;;;;;9.77;3.17;;;;;;;21.46;88.94;101268.81;10437678;28;20579;-79
2023/07/18 17:41:23;;;;;;;11.83;5.33;;;;;;;20.98;94.01;101269.22;10438559;28;20056;-78
2023/07/18 17:46:24;;;;;;;6.70;2.70;;;;;;;20.59;100.00;101237.69;10446824;28;20124;-78
2023/07/18 17:51:25;;;;;;;5.15;3.03;;;;;;;20.34;100.00;101246.25;10418303;28;20132;-78
2023/07/18 17:56:25;;;;;;;6.32;3.42;;;;;;;20.20;100.00;101256.69;10472027;28;20119;-78
2023/07/18 18:01:26;;;;;;;6.85;2.25;;;;;;;20.28;100.00;101267.44;10486315;28;20057;-78
2023/07/18 18:06:26;;;;;;;3.92;2.00;;;;;;;20.33;100.00;101257.78;10451085;28;20139;-77
2023/07/18 18:11:27;;;;;;;5.67;2.10;;;;;;;20.44;100.00;101238.41;10455070;28;20049;-78
2023/07/18 18:16:27;;;;;;;3.67;1.60;;;;;;;20.31;100.00;101232.94;10428303;28;20033;-78
2023/07/18 18:21:28;;;;;;;4.18;2.50;;;;;;;20.05;100.00;101222.84;10442887;28;20058;-77
2023/07/18 18:26:28;;;;;;;5.60;2.53;;;;;;;19.72;100.00;101215.22;10446190;28;20037;-77
2023/07/18 18:31:29;;;;;;;6.22;2.13;;;;;;;19.35;100.00;101202.25;10443553;28;20519;-77
2023/07/18 18:36:29;;;;;;;10.30;2.80;;;;;;;18.92;100.00;101189.09;10406086;28;20041;-78
2023/07/18 18:41:30;;;;;;;4.30;2.28;;;;;;;18.49;100.00;101175.94;10447251;28;20503;-77
2023/07/18 18:46:30;;;;;;;4.55;1.85;;;;;;;18.13;100.00;101184.91;10440878;28;20060;-77
2023/07/18 18:51:31;;;;;;;4.13;2.53;;;;;;;17.76;100.00;101172.59;10445346;28;20039;-78
2023/07/18 18:56:31;;;;;;;3.92;1.95;;;;;;;17.41;100.00;101164.72;10443957;28;20088;-78
2023/07/18 19:01:32;;;;;;;7.32;2.60;;;;;;;17.03;100.00;101178.75;10428019;28;20029;-77
2023/07/18 19:06:32;;;;;;;5.05;2.22;;;;;;;16.83;100.00;101183.50;10444892;28;20116;-78
2023/07/18 19:11:33;;;;;;;5.57;2.00;;;;;;;16.72;100.00;101187.59;10440324;28;20049;-78
2023/07/18 19:16:33;;;;;;;7.22;2.75;;;;;;;16.66;100.00;101198.88;10441781;28;20039;-77
2023/07/18 19:21:34;;;;;;;7.40;2.47;;;;;;;16.68;100.00;101177.78;10442082;28;20041;-77
2023/07/18 19:26:34;;;;;;;14.25;2.80;;;;;;;16.59;100.00;101178.41;10444728;28;20049;-78
2023/07/18 19:31:35;;;;;;;12.52;2.92;;;;;;;16.53;100.00;101178.25;10440764;28;20037;-78
2023/07/18 19:36:35;;;;;;;7.88;2.00;;;;;;;16.40;100.00;101183.19;10443911;28;20064;-78
2023/07/18 19:41:36;;;;;;;8.43;1.95;;;;;;;16.32;100.00;101189.09;10425768;28;20037;-78
2023/07/18 19:46:37;;;;;;;8.75;2.92;;;;;;;16.21;100.00;101194.06;10463749;28;20037;-78
2023/07/18 19:51:37;;;;;;;7.03;1.95;;;;;;;16.11;100.00;101196.41;10442024;28;20128;-78
2023/07/18 19:56:38;;;;;;;5.88;2.70;;;;;;;15.97;100.00;101208.28;10442488;28;20103;-78
2023/07/18 20:01:38;;;;;;;6.30;2.28;;;;;;;15.90;100.00;101209.88;10443016;28;20047;-77
2023/07/18 20:06:39;;;;;;;3.60;2.13;;;;;;;15.85;100.00;101209.66;10441409;28;20043;-77
2023/07/18 20:11:39;;;;;;;5.07;2.25;;;;;;;15.74;100.00;101215.47;10425179;28;20495;-77
2023/07/18 20:16:40;;;;;;;5.88;2.92;;;;;;;15.64;100.00;101224.81;10438001;28;20043;-77
2023/07/18 20:21:41;;;;;;;4.83;2.07;;;;;;;15.57;100.00;101232.53;10401765;28;20083;-77
2023/07/18 20:26:43;;;;;;;7.85;2.53;;;;;;;15.46;100.00;101227.75;10439142;28;20457;-77
2023/07/18 20:31:44;;;;;;;12.30;5.07;;;;;;;15.36;100.00;101222.19;10441053;28;20048;-77
2023/07/18 20:36:44;;;;;;;4.78;2.50;;;;;;;15.24;100.00;101227.03;10441823;28;20041;-77
2023/07/18 20:41:45;;;;;;;14.88;4.20;;;;;;;15.08;100.00;101228.22;10440589;28;20132;-77
2023/07/18 20:46:46;;;;;;;3.67;1.88;;;;;;;14.82;100.00;101234.38;10440577;28;20132;-77
2023/07/18 20:51:46;;;;;;;7.05;2.42;;;;;;;14.61;100.00;101231.81;10441977;28;20361;-77
2023/07/18 20:56:47;;;;;;;18.60;3.33;;;;;;;14.47;100.00;101240.94;10444216;28;20037;-77
2023/07/18 21:01:47;;;;;;;9.10;2.40;;;;;;;14.26;100.00;101251.56;10442372;28;20120;-78
2023/07/18 21:06:48;;;;;;;5.97;2.35;;;;;;;14.13;100.00;101244.91;10423972;28;20140;-77
2023/07/18 21:11:49;;;;;;;5.50;1.80;;;;;;;13.96;100.00;101247.78;10435852;28;20060;-78
2023/07/18 21:16:49;;;;;;;6.68;3.22;;;;;;;13.73;100.00;101245.13;10427160;28;20248;-77
2023/07/18 21:21:50;;;;;;;5.32;2.40;;;;;;;13.70;100.00;101246.75;10477713;28;20045;-77
2023/07/18 21:26:50;;;;;;;9.57;2.47;;;;;;;13.59;100.00;101238.38;10446479;28;20087;-77
2023/07/18 21:31:51;;;;;;;10.30;2.50;;;;;;;13.31;100.00;101250.34;10448078;28;20404;-77
2023/07/18 21:36:52;;;;;;;7.63;2.65;;;;;;;13.17;100.00;101234.88;10446494;28;20068;-77
2023/07/18 21:41:52;;;;;;;14.25;2.55;;;;;;;13.11;100.00;101232.00;10426299;28;20140;-77
2023/07/18 21:46:53;;;;;;;7.50;2.85;;;;;;;13.01;100.00;101233.34;10473954;28;20594;-77
2023/07/18 21:51:54;;;;;;;4.88;2.22;;;;;;;12.89;100.00;101222.28;10447466;28;20171;-77
2023/07/18 21:56:54;;;;;;;7.63;2.15;;;;;;;12.92;100.00;101219.81;10446670;28;20492;-77
2023/07/18 22:01:55;;;;;;;4.50;2.00;;;;;;;12.82;100.00;101230.75;10445980;28;20120;-77
2023/07/18 22:06:55;;;;;;;8.40;2.47;;;;;;;12.76;100.00;101227.00;10439408;28;20505;-77
2023/07/18 22:11:56;;;;;;;7.18;2.40;;;;;;;12.71;100.00;101230.25;10447041;28;20053;-76
2023/07/18 22:16:56;;;;;;;4.38;1.95;;;;;;;12.62;100.00;101228.13;10447180;28;20074;-77
2023/07/18 22:21:57;;;;;;;6.90;2.63;;;;;;;12.51;100.00;101235.50;10445809;28;20040;-77
2023/07/18 22:26:57;;;;;;;3.72;2.03;;;;;;;12.37;100.00;101250.63;10446258;28;20087;-77
2023/07/18 22:31:58;;;;;;;4.60;2.15;;;;;;;12.23;100.00;101239.47;10447880;28;20069;-76
2023/07/18 22:36:59;;;;;;;5.20;2.40;;;;;;;12.18;100.00;101241.88;10434882;28;20123;-77
2023/07/18 22:42:15;;;;;;;7.97;2.10;;;;;;;12.14;100.00;101239.03;10445247;28;20033;-77
2023/07/18 22:47:16;;;;;;;3.58;2.10;;;;;;;12.02;100.00;101236.75;10444812;28;20066;-77
2023/07/18 22:52:17;;;;;;;11.55;2.50;;;;;;;11.90;100.00;101230.06;10444468;28;20025;-77